createdAt,value
2018-04-15T00:00:10.454Z,1.00
2018-04-15T00:02:46.659Z,0.83
2018-04-15T00:03:48.069Z,0.80
2018-04-15T00:04:51.201Z,0.93
2018-04-15T00:05:52.637Z,0.90
2018-04-15T00:06:55.545Z,0.80
2018-04-15T00:07:56.981Z,1.00
2018-04-15T00:08:58.495Z,0.90
2018-04-15T00:09:59.933Z,0.90
2018-04-15T00:11:01.387Z,1.00
2018-04-15T00:12:02.822Z,0.97
2018-04-15T00:13:34.126Z,0.80
2018-04-15T00:14:37.243Z,0.80
2018-04-15T00:16:53.445Z,0.80
2018-04-15T00:17:54.877Z,0.73
2018-04-15T00:18:57.429Z,0.90
2018-04-15T00:19:58.861Z,0.80
2018-04-15T00:21:50.080Z,1.00
2018-04-15T00:22:51.535Z,0.87
2018-04-15T00:23:53.042Z,1.00
2018-04-15T00:24:54.768Z,1.00
2018-04-15T00:25:56.216Z,1.10
2018-04-15T00:26:57.650Z,1.10
2018-04-15T00:27:59.072Z,1.30
2018-04-15T00:29:00.530Z,1.67
2018-04-15T00:30:01.985Z,1.97
2018-04-15T00:31:03.427Z,1.93
2018-04-15T00:32:04.829Z,1.00
2018-04-15T00:33:06.229Z,1.10
2018-04-15T00:34:08.750Z,1.03
2018-04-15T00:35:10.172Z,0.90
2018-04-15T00:36:11.585Z,0.80
2018-04-15T00:37:14.102Z,1.00
2018-04-15T00:38:15.545Z,1.10
2018-04-15T00:39:16.965Z,0.80
2018-04-15T00:40:20.124Z,0.90
2018-04-15T00:41:21.533Z,0.90
2018-04-15T00:42:23.681Z,0.80
2018-04-15T00:43:25.102Z,1.10
2018-04-15T00:44:26.528Z,1.07
2018-04-15T00:45:28.774Z,1.00
2018-04-15T00:46:30.220Z,0.90
2018-04-15T00:47:56.425Z,1.00
2018-04-15T00:48:58.626Z,1.00
2018-04-15T00:50:00.045Z,1.00
2018-04-15T00:51:02.237Z,1.00
2018-04-15T00:52:03.717Z,1.03
2018-04-15T00:53:05.129Z,1.10
2018-04-15T00:54:16.624Z,1.10
2018-04-15T00:55:19.725Z,1.00
2018-04-15T00:56:21.163Z,1.07
2018-04-15T00:57:22.567Z,1.20
2018-04-15T00:58:24.018Z,0.80
2018-04-15T00:59:25.442Z,0.83
2018-04-15T01:00:26.845Z,1.30
2018-04-15T01:01:29.332Z,1.00
2018-04-15T01:02:31.487Z,1.07
2018-04-15T01:03:33.638Z,0.90
2018-04-15T01:04:35.064Z,1.10
2018-04-15T01:05:36.485Z,0.90
2018-04-15T01:06:37.896Z,0.80
2018-04-15T01:07:39.309Z,0.80
2018-04-15T01:08:40.704Z,1.00
2018-04-15T01:09:42.837Z,0.90
2018-04-15T01:10:44.241Z,0.80
2018-04-15T01:11:45.665Z,0.90
2018-04-15T01:13:11.351Z,1.00
2018-04-15T01:14:12.832Z,1.10
2018-04-15T01:15:15.361Z,1.20
2018-04-15T01:16:16.859Z,1.03
2018-04-15T01:17:18.272Z,1.10
2018-04-15T01:18:20.415Z,0.90
2018-04-15T01:19:21.824Z,1.00
2018-04-15T01:21:10.337Z,1.10
2018-04-15T01:22:11.748Z,1.23
2018-04-15T01:23:13.177Z,0.90
2018-04-15T01:24:15.338Z,1.17
2018-04-15T01:25:16.828Z,1.10
2018-04-15T01:26:19.955Z,1.13
2018-04-15T01:27:21.392Z,0.90
2018-04-15T01:28:23.069Z,0.97
2018-04-15T01:29:25.214Z,1.10
2018-04-15T01:30:26.605Z,1.03
2018-04-15T01:31:28.040Z,1.10
2018-04-15T01:32:29.724Z,1.00
2018-04-15T01:33:31.445Z,1.07
2018-04-15T01:40:11.777Z,1.00
2018-04-15T01:41:13.913Z,1.20
2018-04-15T01:42:15.381Z,1.13
2018-04-15T01:43:17.567Z,1.00
2018-04-15T01:44:20.472Z,1.10
2018-04-15T01:45:22.167Z,1.13
2018-04-15T01:46:23.576Z,1.10
2018-04-15T01:47:24.984Z,1.43
2018-04-15T01:48:26.384Z,1.17
2018-04-15T01:49:27.820Z,1.23
2018-04-15T01:50:29.554Z,1.03
2018-04-15T01:51:30.976Z,1.20
2018-04-15T01:52:32.421Z,1.10
2018-04-15T01:53:33.826Z,1.10
2018-04-15T01:54:35.247Z,1.00
2018-04-15T01:55:36.676Z,1.10
2018-04-15T01:56:38.084Z,0.90
2018-04-15T01:57:40.598Z,0.93
2018-04-15T01:58:42.024Z,1.10
2018-04-15T01:59:44.172Z,0.97
2018-04-15T02:00:45.885Z,0.97
2018-04-15T02:01:47.303Z,1.00
2018-04-15T02:02:48.702Z,0.90
2018-04-15T02:03:50.093Z,1.00
2018-04-15T02:04:51.517Z,0.90
2018-04-15T02:05:53.292Z,0.90
2018-04-15T02:06:54.685Z,1.00
2018-04-15T02:07:56.134Z,1.07
2018-04-15T02:08:57.574Z,1.10
2018-04-15T02:10:00.467Z,1.17
2018-04-15T02:11:02.269Z,1.13
2018-04-15T02:12:05.390Z,1.00
2018-04-15T02:13:06.879Z,1.03
2018-04-15T02:14:08.285Z,0.97
2018-04-15T02:15:10.481Z,1.00
2018-04-15T02:16:12.293Z,0.83
2018-04-15T02:17:14.454Z,0.90
2018-04-15T02:18:16.590Z,1.00
2018-04-15T02:19:18.014Z,1.10
2018-04-15T02:20:20.189Z,1.00
2018-04-15T02:21:21.929Z,1.20
2018-04-15T02:22:23.379Z,1.17
2018-04-15T02:23:24.792Z,1.00
2018-04-15T02:24:26.212Z,1.00
2018-04-15T02:25:27.630Z,1.00
2018-04-15T02:26:29.090Z,0.90
2018-04-15T02:27:30.504Z,1.10
2018-04-15T02:28:32.694Z,1.03
2018-04-15T02:29:34.134Z,1.00
2018-04-15T02:30:36.270Z,1.00
2018-04-15T02:31:37.990Z,0.90
2018-04-15T02:32:39.427Z,0.90
2018-04-15T02:33:40.833Z,0.93
2018-04-15T02:34:42.255Z,1.10
2018-04-15T02:35:43.650Z,1.00
2018-04-15T02:36:45.830Z,1.00
2018-04-15T02:37:47.978Z,1.30
2018-04-15T02:38:51.097Z,1.00
2018-04-15T02:39:52.516Z,1.40
2018-04-15T02:40:53.926Z,1.40
2018-04-15T02:41:55.374Z,1.67
2018-04-15T02:42:56.785Z,1.40
2018-04-15T02:43:58.996Z,1.10
2018-04-15T02:45:00.440Z,1.27
2018-04-15T02:46:01.866Z,1.13
2018-04-15T02:47:04.996Z,1.10
2018-04-15T02:48:06.429Z,1.27
2018-04-15T02:49:07.850Z,1.37
2018-04-15T02:50:10.350Z,1.03
2018-04-15T02:51:11.782Z,1.30
2018-04-15T02:52:14.242Z,1.20
2018-04-15T02:53:16.390Z,1.50
2018-04-15T02:54:17.804Z,1.30
2018-04-15T02:55:19.230Z,1.60
2018-04-15T02:56:20.646Z,1.40
2018-04-15T02:57:22.353Z,1.50
2018-04-15T02:58:23.770Z,1.30
2018-04-15T02:59:25.945Z,1.60
2018-04-15T03:00:28.114Z,1.50
2018-04-15T03:01:30.276Z,1.40
2018-04-15T03:02:32.448Z,1.20
2018-04-15T03:03:35.397Z,1.50
2018-04-15T03:04:36.859Z,1.43
2018-04-15T03:05:38.368Z,1.50
2018-04-15T03:06:39.792Z,1.60
2018-04-15T03:07:42.226Z,1.40
2018-04-15T03:08:45.424Z,1.60
2018-04-15T03:09:46.880Z,1.60
2018-04-15T03:10:48.328Z,1.30
2018-04-15T03:11:49.772Z,1.50
2018-04-15T03:12:51.571Z,1.47
2018-04-15T03:13:53.749Z,1.43
2018-04-15T03:14:55.214Z,1.50
2018-04-15T03:15:56.734Z,1.40
2018-04-15T03:16:59.896Z,1.40
2018-04-15T03:18:01.354Z,1.40
2018-04-15T03:19:02.810Z,1.50
2018-04-15T03:20:04.261Z,1.30
2018-04-15T03:21:05.734Z,1.20
2018-04-15T03:22:08.875Z,1.17
2018-04-15T03:23:11.138Z,1.20
2018-04-15T03:24:12.554Z,1.60
2018-04-15T03:25:15.461Z,1.50
2018-04-15T03:26:16.947Z,1.30
2018-04-15T03:27:18.408Z,1.40
2018-04-15T03:28:19.845Z,1.20
2018-04-15T03:29:21.284Z,1.07
2018-04-15T03:30:22.757Z,1.03
2018-04-15T03:31:24.190Z,1.30
2018-04-15T03:32:25.629Z,1.20
2018-04-15T03:33:27.869Z,1.30
2018-04-15T03:34:30.563Z,1.10
2018-04-15T03:35:32.041Z,1.10
2018-04-15T03:36:33.482Z,1.30
2018-04-15T03:37:34.947Z,1.10
2018-04-15T03:38:36.781Z,1.10
2018-04-15T03:39:38.249Z,1.30
2018-04-15T03:40:41.169Z,1.20
2018-04-15T03:41:42.631Z,1.23
2018-04-15T03:42:44.144Z,1.23
2018-04-15T03:43:45.609Z,1.30
2018-04-15T03:44:47.028Z,1.10
2018-04-15T03:45:48.477Z,1.23
2018-04-15T03:46:49.934Z,1.20
2018-04-15T03:47:51.413Z,1.50
2018-04-15T03:48:53.130Z,1.43
2018-04-15T03:49:55.320Z,1.37
2018-04-15T03:50:56.809Z,1.40
2018-04-15T03:51:58.320Z,1.20
2018-04-15T03:52:59.847Z,1.40
2018-04-15T03:54:01.746Z,1.47
2018-04-15T03:55:03.304Z,2.03
2018-04-15T03:56:04.806Z,1.50
2018-04-15T03:57:07.018Z,1.50
2018-04-15T03:58:09.317Z,1.60
2018-04-15T03:59:11.126Z,1.60
2018-04-15T04:00:12.721Z,1.57
2018-04-15T04:01:14.302Z,1.90
2018-04-15T04:02:16.584Z,1.70
2018-04-15T04:03:19.198Z,1.67
2018-04-15T04:05:05.979Z,1.40
2018-04-15T04:06:07.998Z,1.20
2018-04-15T04:07:10.395Z,1.70
2018-04-15T04:08:11.993Z,1.53
2018-04-15T04:09:13.625Z,1.40
2018-04-15T04:10:15.581Z,1.80
2018-04-15T04:11:17.902Z,1.90
2018-04-15T04:12:19.537Z,2.00
2018-04-15T04:13:21.231Z,1.40
2018-04-15T04:14:50.683Z,1.63
2018-04-15T04:15:53.052Z,1.90
2018-04-15T04:16:55.571Z,1.60
2018-04-15T04:20:16.637Z,1.77
2018-04-15T04:21:37.761Z,1.40
2018-04-15T04:22:57.579Z,1.23
2018-04-15T04:26:03.762Z,1.30
2018-04-15T04:27:05.465Z,1.50
2018-04-15T04:28:07.288Z,2.17
2018-04-15T04:29:08.919Z,2.20
2018-04-15T04:30:10.454Z,1.80
2018-04-15T04:31:11.984Z,2.50
2018-04-15T04:32:13.697Z,2.00
2018-04-15T04:33:16.328Z,1.77
2018-04-15T04:34:17.966Z,1.93
2018-04-15T04:35:20.780Z,1.40
2018-04-15T04:36:22.393Z,1.60
2018-04-15T04:37:25.750Z,1.70
2018-04-15T04:38:27.321Z,1.40
2018-04-15T04:39:29.920Z,1.70
2018-04-15T04:42:55.746Z,2.10
2018-04-15T04:43:57.311Z,1.80
2018-04-15T04:44:59.973Z,1.80
2018-04-15T04:46:01.758Z,2.30
2018-04-15T04:48:00.503Z,16.70
2018-04-15T04:49:02.228Z,9.10
2018-04-15T04:50:05.452Z,3.13
2018-04-15T04:51:07.069Z,5.30
2018-04-15T04:52:08.704Z,6.47
2018-04-15T04:53:10.657Z,3.00
2018-04-15T04:54:12.966Z,3.70
2018-04-15T04:56:07.787Z,6.67
2018-04-15T04:57:09.381Z,5.00
2018-04-15T04:58:11.364Z,5.83
2018-04-15T05:00:41.980Z,4.47
2018-04-15T05:01:44.362Z,6.33
2018-04-15T05:02:45.986Z,7.07
2018-04-15T05:03:47.652Z,5.07
2018-04-15T05:04:49.315Z,8.70
2018-04-15T05:07:45.939Z,5.80
2018-04-15T05:09:34.545Z,2.90
2018-04-15T05:10:36.344Z,1.70
2018-04-15T05:11:38.170Z,1.70
2018-04-15T05:12:39.745Z,1.70
2018-04-15T05:13:41.398Z,2.07
2018-04-15T05:14:43.066Z,1.90
2018-04-15T05:15:45.412Z,1.70
2018-04-15T05:16:46.960Z,1.50
2018-04-15T05:17:50.220Z,1.93
2018-04-15T05:18:51.808Z,2.10
2018-04-15T05:19:54.176Z,2.20
2018-04-15T05:20:56.470Z,1.97
2018-04-15T05:21:58.054Z,2.23
2018-04-15T05:23:00.968Z,2.20
2018-04-15T05:24:04.329Z,2.00
2018-04-15T05:25:06.113Z,2.17
2018-04-15T05:26:08.560Z,2.20
2018-04-15T05:27:10.174Z,1.83
2018-04-15T05:28:11.736Z,1.77
2018-04-15T05:29:13.314Z,1.70
2018-04-15T05:30:14.959Z,1.73
2018-04-15T05:31:17.326Z,1.83
2018-04-15T05:32:18.976Z,1.83
2018-04-15T05:33:22.219Z,2.10
2018-04-15T05:34:23.814Z,1.73
2018-04-15T05:35:26.180Z,1.67
2018-04-15T05:36:28.836Z,1.90
2018-04-15T05:37:31.510Z,2.07
2018-04-15T05:38:33.340Z,2.23
2018-04-15T05:39:35.103Z,2.53
2018-04-15T05:40:38.338Z,2.10
2018-04-15T05:41:39.945Z,2.30
2018-04-15T05:42:41.510Z,2.10
2018-04-15T05:43:43.479Z,2.43
2018-04-15T05:44:45.090Z,2.43
2018-04-15T05:45:46.765Z,2.43
2018-04-15T05:46:48.355Z,2.67
2018-04-15T05:47:50.018Z,2.17
2018-04-15T05:48:51.614Z,2.33
2018-04-15T05:49:53.192Z,2.43
2018-04-15T05:50:54.752Z,2.60
2018-04-15T05:51:56.350Z,2.30
2018-04-15T05:52:58.244Z,2.13
2018-04-15T05:54:00.072Z,2.73
2018-04-15T05:55:02.556Z,2.60
2018-04-15T05:56:06.051Z,2.40
2018-04-15T05:57:08.485Z,2.37
2018-04-15T05:58:10.894Z,2.27
2018-04-15T05:59:12.514Z,2.20
2018-04-15T06:00:14.097Z,2.60
2018-04-15T06:01:15.651Z,2.30
2018-04-15T06:02:17.284Z,2.30
2018-04-15T06:03:20.417Z,2.30
2018-04-15T06:05:07.711Z,2.17
2018-04-15T06:06:09.291Z,2.00
2018-04-15T06:07:58.815Z,2.10
2018-04-15T06:09:00.642Z,2.13
2018-04-15T06:10:02.320Z,2.17
2018-04-15T06:11:05.619Z,2.20
2018-04-15T06:12:08.056Z,2.47
2018-04-15T06:13:10.467Z,2.20
2018-04-15T06:14:12.996Z,2.23
2018-04-15T06:15:14.708Z,2.10
2018-04-15T06:16:16.422Z,2.43
2018-04-15T06:17:18.108Z,2.20
2018-04-15T06:18:21.600Z,2.60
2018-04-15T06:19:24.977Z,2.80
2018-04-15T06:20:26.612Z,2.40
2018-04-15T06:21:30.020Z,2.43
2018-04-15T06:22:32.865Z,2.13
2018-04-15T06:23:34.602Z,4.90
2018-04-15T06:24:37.097Z,4.97
2018-04-15T06:25:40.244Z,4.50
2018-04-15T06:28:43.198Z,2.93
2018-04-15T06:29:45.514Z,2.80
2018-04-15T06:30:47.299Z,2.67
2018-04-15T06:31:50.408Z,2.27
2018-04-15T06:32:52.070Z,2.60
2018-04-15T06:33:55.780Z,2.30
2018-04-15T06:34:57.409Z,2.40
2018-04-15T06:35:59.138Z,2.70
2018-04-15T06:37:00.978Z,2.17
2018-04-15T06:38:02.731Z,2.00
2018-04-15T06:39:05.605Z,2.33
2018-04-15T06:41:08.190Z,2.60
2018-04-15T06:42:11.325Z,2.43
2018-04-15T06:43:12.960Z,2.70
2018-04-15T06:44:15.296Z,2.77
2018-04-15T06:45:16.909Z,3.03
2018-04-15T06:46:18.519Z,2.70
2018-04-15T06:47:20.153Z,2.30
2018-04-15T06:48:21.854Z,2.20
2018-04-15T06:49:23.624Z,2.40
2018-04-15T06:50:25.337Z,2.30
2018-04-15T06:51:27.007Z,2.47
2018-04-15T06:52:28.857Z,2.40
2018-04-15T06:53:30.521Z,2.60
2018-04-15T06:54:33.743Z,2.67
2018-04-15T06:55:35.453Z,2.53
2018-04-15T06:56:37.144Z,2.20
2018-04-15T06:57:40.333Z,2.50
2018-04-15T06:58:43.598Z,2.60
2018-04-15T06:59:45.251Z,2.23
2018-04-15T07:00:46.866Z,2.07
2018-04-15T07:01:50.146Z,2.20
2018-04-15T07:02:53.380Z,2.30
2018-04-15T07:03:54.893Z,2.13
2018-04-15T07:04:57.848Z,2.53
2018-04-15T07:06:00.357Z,2.37
2018-04-15T07:07:02.841Z,2.47
2018-04-15T07:08:05.327Z,2.37
2018-04-15T07:09:07.023Z,2.20
2018-04-15T07:10:08.625Z,2.63
2018-04-15T07:11:09.977Z,2.50
2018-04-15T07:14:11.459Z,2.27
2018-04-15T07:15:14.731Z,2.50
2018-04-15T07:18:28.592Z,2.40
2018-04-15T07:19:30.326Z,2.87
2018-04-15T07:20:32.148Z,2.57
2018-04-15T07:21:33.818Z,2.57
2018-04-15T07:22:35.547Z,2.60
2018-04-15T07:23:37.297Z,2.17
2018-04-15T07:24:38.921Z,2.13
2018-04-15T07:26:19.375Z,2.23
2018-04-15T07:27:21.660Z,2.33
2018-04-15T07:28:23.233Z,2.50
2018-04-15T07:29:24.831Z,2.50
2018-04-15T07:31:08.961Z,2.53
2018-04-15T07:37:58.059Z,3.47
2018-04-15T07:38:59.971Z,2.90
2018-04-15T07:40:03.338Z,2.37
2018-04-15T07:41:05.144Z,2.83
2018-04-15T07:42:47.923Z,3.43
2018-04-15T07:45:55.599Z,3.20
2018-04-15T07:46:57.177Z,3.97
2018-04-15T07:48:00.363Z,3.60
2018-04-15T07:49:02.202Z,3.90
2018-04-15T07:50:03.948Z,3.37
2018-04-15T07:51:05.686Z,3.67
2018-04-15T07:52:07.483Z,3.30
2018-04-15T07:53:09.188Z,3.83
2018-04-15T07:54:10.827Z,4.77
2018-04-15T07:55:12.447Z,4.30
2018-04-15T07:56:14.034Z,4.73
2018-04-15T07:57:15.622Z,4.93
2018-04-15T07:58:17.222Z,5.33
2018-04-15T07:59:20.489Z,4.40
2018-04-15T08:00:22.432Z,3.83
2018-04-15T08:01:24.010Z,3.03
2018-04-15T08:02:26.806Z,2.90
2018-04-15T08:03:29.408Z,2.50
2018-04-15T08:04:31.224Z,2.33
2018-04-15T08:05:33.136Z,4.27
2018-04-15T08:06:35.000Z,4.07
2018-04-15T08:07:36.858Z,4.50
2018-04-15T08:09:15.480Z,4.27
2018-04-15T08:10:17.064Z,5.27
2018-04-15T08:11:20.456Z,6.40
2018-04-15T08:12:23.770Z,5.30
2018-04-15T08:16:20.406Z,4.87
2018-04-15T08:18:44.515Z,5.07
2018-04-15T08:19:46.108Z,4.57
2018-04-15T08:20:48.535Z,4.37
2018-04-15T08:21:51.242Z,2.90
2018-04-15T08:22:52.846Z,2.87
2018-04-15T08:23:56.112Z,3.27
2018-04-15T08:24:57.715Z,3.13
2018-04-15T08:28:28.054Z,4.90
2018-04-15T08:29:30.521Z,6.10
2018-04-15T08:30:33.756Z,5.17
2018-04-15T08:31:35.286Z,3.93
2018-04-15T08:34:54.349Z,3.20
2018-04-15T08:35:57.489Z,3.07
2018-04-15T08:36:58.907Z,3.67
2018-04-15T08:38:02.016Z,2.70
2018-04-15T08:39:05.160Z,2.20
2018-04-15T08:40:08.268Z,2.17
2018-04-15T08:41:11.384Z,2.73
2018-04-15T08:42:12.778Z,2.20
2018-04-15T08:43:15.896Z,2.23
2018-04-15T08:44:17.306Z,2.33
2018-04-15T08:45:20.844Z,2.20
2018-04-15T08:46:23.497Z,2.63
2018-04-15T08:47:26.704Z,2.67
2018-04-15T08:48:28.377Z,3.60
2018-04-15T08:49:31.785Z,2.70
2018-04-15T08:50:35.408Z,2.30
2018-04-15T08:51:37.043Z,1.90
2018-04-15T08:52:40.348Z,3.13
2018-04-15T08:53:41.970Z,2.57
2018-04-15T08:54:45.185Z,2.93
2018-04-15T08:55:47.768Z,2.23
2018-04-15T08:56:50.505Z,2.83
2018-04-15T08:57:53.625Z,2.30
2018-04-15T08:58:56.879Z,2.50
2018-04-15T09:00:00.249Z,2.67
2018-04-15T09:01:03.006Z,2.83
2018-04-15T09:02:04.654Z,2.30
2018-04-15T09:03:07.812Z,2.20
2018-04-15T09:04:11.138Z,2.57
2018-04-15T09:05:14.518Z,2.73
2018-04-15T09:06:16.475Z,2.37
2018-04-15T09:07:19.919Z,2.20
2018-04-15T09:08:21.561Z,2.20
2018-04-15T09:09:23.289Z,2.23
2018-04-15T09:10:26.581Z,2.00
2018-04-15T09:11:28.569Z,2.47
2018-04-15T09:12:30.614Z,2.10
2018-04-15T09:13:33.805Z,2.63
2018-04-15T09:14:37.195Z,2.63
2018-04-15T09:15:40.576Z,2.20
2018-04-15T09:16:42.710Z,1.90
2018-04-15T09:17:46.088Z,2.17
2018-04-15T09:18:47.825Z,2.20
2018-04-15T09:20:17.364Z,2.00
2018-04-15T09:21:20.632Z,1.80
2018-04-15T09:22:23.827Z,2.00
2018-04-15T09:23:25.749Z,2.23
2018-04-15T09:24:29.039Z,1.90
2018-04-15T09:25:32.453Z,2.00
2018-04-15T09:26:35.752Z,1.50
2018-04-15T09:27:37.701Z,2.50
2018-04-15T09:28:40.751Z,1.73
2018-04-15T09:29:44.035Z,2.07
2018-04-15T09:32:30.483Z,2.10
2018-04-15T09:33:32.933Z,1.90
2018-04-15T09:34:36.302Z,1.63
2018-04-15T09:35:37.976Z,1.60
2018-04-15T09:36:39.626Z,2.30
2018-04-15T09:37:42.934Z,2.40
2018-04-15T09:38:45.315Z,2.00
2018-04-15T09:39:48.546Z,1.73
2018-04-15T09:42:12.653Z,1.93
2018-04-15T09:43:15.762Z,1.80
2018-04-15T09:44:17.581Z,1.90
2018-04-15T09:45:19.223Z,2.17
2018-04-15T09:46:20.853Z,2.10
2018-04-15T09:47:22.448Z,1.70
2018-04-15T09:48:25.721Z,2.00
2018-04-15T09:49:29.733Z,2.17
2018-04-15T09:50:31.466Z,2.17
2018-04-15T09:51:33.949Z,2.40
2018-04-15T09:52:37.334Z,1.90
2018-04-15T09:53:38.984Z,2.20
2018-04-15T09:54:42.564Z,1.83
2018-04-15T09:55:45.788Z,2.30
2018-04-15T09:56:47.468Z,2.40
2018-04-15T09:57:50.758Z,3.20
2018-04-15T09:58:52.361Z,3.73
2018-04-15T09:59:55.604Z,2.67
2018-04-15T10:01:03.019Z,3.00
2018-04-15T10:02:06.415Z,2.30
2018-04-15T10:03:09.664Z,3.23
2018-04-15T10:04:11.058Z,2.50
2018-04-15T10:05:13.583Z,2.40
2018-04-15T10:06:15.713Z,2.83
2018-04-15T10:07:18.801Z,2.47
2018-04-15T10:08:21.682Z,2.03
2018-04-15T10:09:24.807Z,2.00
2018-04-15T10:10:27.720Z,2.40
2018-04-15T10:11:30.604Z,2.60
2018-04-15T10:12:32.025Z,2.53
2018-04-15T10:13:33.405Z,2.60
2018-04-15T10:14:36.502Z,2.60
2018-04-15T10:15:39.825Z,2.60
2018-04-15T10:16:41.552Z,2.47
2018-04-15T10:17:43.265Z,3.17
2018-04-15T10:18:45.036Z,2.40
2018-04-15T10:19:47.775Z,2.00
2018-04-15T10:20:50.882Z,2.43
2018-04-15T10:21:52.406Z,2.83
2018-04-15T10:22:55.755Z,2.23
2018-04-15T10:23:58.977Z,2.37
2018-04-15T10:25:00.644Z,2.33
2018-04-15T10:26:03.839Z,2.57
2018-04-15T10:27:05.566Z,1.97
2018-04-15T10:38:24.479Z,2.80
2018-04-15T10:39:26.953Z,2.73
2018-04-15T10:40:30.346Z,2.60
2018-04-15T10:41:33.737Z,2.50
2018-04-15T10:42:36.505Z,2.50
2018-04-15T10:43:39.819Z,2.73
2018-04-15T10:45:22.572Z,2.40
2018-04-15T10:47:59.419Z,2.53
2018-04-15T10:50:20.894Z,2.60
2018-04-15T10:51:22.479Z,2.30
2018-04-15T10:52:25.846Z,2.23
2018-04-15T10:53:30.290Z,2.50
2018-04-15T10:55:35.000Z,2.80
2018-04-15T10:56:38.350Z,2.70
2018-04-15T10:57:41.778Z,3.17
2018-04-15T10:58:45.136Z,2.60
2018-04-15T10:59:46.786Z,3.60
2018-04-15T11:00:50.195Z,3.07
2018-04-15T11:03:13.064Z,3.40
2018-04-15T11:04:16.438Z,2.87
2018-04-15T11:05:19.720Z,3.37
2018-04-15T11:06:23.076Z,3.63
2018-04-15T11:07:26.406Z,3.40
2018-04-15T11:08:28.455Z,2.80
2018-04-15T11:09:30.256Z,3.37
2018-04-15T11:10:32.126Z,3.10
2018-04-15T11:11:35.451Z,3.10
2018-04-15T11:12:37.180Z,2.93
2018-04-15T11:13:38.840Z,3.47
2018-04-15T11:14:40.420Z,3.20
2018-04-15T11:35:35.236Z,3.97
2018-04-15T11:36:36.896Z,4.03
2018-04-15T11:37:38.606Z,4.63
2018-04-15T11:38:40.233Z,4.13
2018-04-15T11:39:43.539Z,4.57
2018-04-15T11:40:45.169Z,4.50
2018-04-15T11:41:46.823Z,4.13
2018-04-15T11:42:48.473Z,4.00
2018-04-15T11:43:51.847Z,4.20
2018-04-15T11:44:55.152Z,4.73
2018-04-15T11:45:56.808Z,4.40
2018-04-15T11:46:59.270Z,4.47
2018-04-15T11:48:02.624Z,4.00
2018-04-15T11:49:06.000Z,4.67
2018-04-15T11:50:07.648Z,5.30
2018-04-15T11:51:11.032Z,4.70
2018-04-15T11:52:14.340Z,4.13
2018-04-15T11:53:15.771Z,4.67
2018-04-15T11:54:18.969Z,5.50
2018-04-15T11:55:21.841Z,4.70
2018-04-15T11:56:26.612Z,4.27
2018-04-15T11:57:28.027Z,4.70
2018-04-15T11:58:29.753Z,4.60
2018-04-15T11:59:32.829Z,5.17
2018-04-15T12:00:35.273Z,4.13
2018-04-15T12:01:37.001Z,4.57
2018-04-15T12:02:40.095Z,4.50
2018-04-15T12:03:43.152Z,4.53
2018-04-15T12:04:44.682Z,4.37
2018-04-15T12:05:46.278Z,5.17
2018-04-15T12:06:47.859Z,5.27
2018-04-15T12:07:49.398Z,5.40
2018-04-15T12:08:52.607Z,4.93
2018-04-15T12:09:55.897Z,5.80
2018-04-15T12:10:58.288Z,5.97
2018-04-15T12:12:00.438Z,5.07
2018-04-15T12:13:03.147Z,5.70
2018-04-15T12:14:04.899Z,4.63
2018-04-15T12:15:07.428Z,4.43
2018-04-15T12:16:09.969Z,4.93
2018-04-15T12:17:12.190Z,5.03
2018-04-15T12:18:13.607Z,5.17
2018-04-15T12:19:16.129Z,5.40
2018-04-15T12:20:19.291Z,4.30
2018-04-15T12:21:20.715Z,3.73
2018-04-15T12:22:22.133Z,4.27
2018-04-15T12:23:23.560Z,4.00
2018-04-15T12:24:26.116Z,4.40
2018-04-15T12:25:27.536Z,4.93
2018-04-15T12:27:51.583Z,5.27
2018-04-15T12:29:23.242Z,5.07
2018-04-15T12:30:24.875Z,4.37
2018-04-15T12:31:27.220Z,4.20
2018-04-15T12:32:29.586Z,4.60
2018-04-15T12:33:31.403Z,4.43
2018-04-15T12:36:45.126Z,3.60
2018-04-15T12:37:46.719Z,3.50
2018-04-15T12:38:49.959Z,3.60
2018-04-15T12:39:51.578Z,3.90
2018-04-15T12:40:53.191Z,3.50
2018-04-15T12:41:54.739Z,3.40
2018-04-15T12:42:57.997Z,4.20
2018-04-15T12:44:01.388Z,3.43
2018-04-15T12:45:04.727Z,3.57
2018-04-15T12:46:08.097Z,4.03
2018-04-15T12:47:11.155Z,4.20
2018-04-15T12:48:12.749Z,4.23
2018-04-15T12:49:16.025Z,3.47
2018-04-15T12:50:19.266Z,4.00
2018-04-15T12:51:20.829Z,4.10
2018-04-15T12:52:23.147Z,3.67
2018-04-15T13:06:00.967Z,3.97
2018-04-15T13:07:05.295Z,3.73
2018-04-15T13:10:52.301Z,4.20
2018-04-15T13:11:53.927Z,4.73
2018-04-15T13:12:57.225Z,4.37
2018-04-15T13:14:00.604Z,4.67
2018-04-15T13:15:02.355Z,3.97
2018-04-15T13:16:04.115Z,4.33
2018-04-15T13:17:05.769Z,4.30
2018-04-15T13:18:09.113Z,4.80
2018-04-15T13:19:12.392Z,3.83
2018-04-15T13:20:14.086Z,3.87
2018-04-15T13:21:17.532Z,4.57
2018-04-15T13:22:21.073Z,4.70
2018-04-15T13:23:23.457Z,3.83
2018-04-15T13:24:25.027Z,3.70
2018-04-15T13:25:27.439Z,3.73
2018-04-15T13:26:30.816Z,3.83
2018-04-15T13:27:32.631Z,3.67
2018-04-15T13:28:36.007Z,3.80
2018-04-15T13:29:39.258Z,3.90
2018-04-15T13:30:42.522Z,4.20
2018-04-15T13:31:45.785Z,4.40
2018-04-15T13:32:49.189Z,4.17
2018-04-15T13:33:52.425Z,4.53
2018-04-15T13:34:55.728Z,4.17
2018-04-15T13:35:58.450Z,4.63
2018-04-15T13:37:01.783Z,4.30
2018-04-15T13:38:05.143Z,4.00
2018-04-15T13:39:08.535Z,4.40
2018-04-15T13:40:11.801Z,4.50
2018-04-15T13:41:15.081Z,4.57
2018-04-15T13:42:18.180Z,3.93
2018-04-15T13:43:21.481Z,4.27
2018-04-15T13:44:24.761Z,4.50
2018-04-15T13:45:28.031Z,4.03
2018-04-15T13:46:29.461Z,4.00
2018-04-15T13:47:31.650Z,4.27
2018-04-15T13:48:33.093Z,4.20
2018-04-15T13:49:36.197Z,4.00
2018-04-15T13:50:39.555Z,4.40
2018-04-15T13:51:41.193Z,4.77
2018-04-15T13:52:44.416Z,4.43
2018-04-15T13:53:47.717Z,4.00
2018-04-15T13:54:49.105Z,3.83
2018-04-15T13:55:50.695Z,4.00
2018-04-15T13:56:52.267Z,4.20
2018-04-15T13:57:55.535Z,4.13
2018-04-15T13:58:57.392Z,4.30
2018-04-15T13:59:59.145Z,4.00
2018-04-15T14:01:02.515Z,4.40
2018-04-15T14:02:05.897Z,3.70
2018-04-15T14:03:07.624Z,3.93
2018-04-15T14:04:11.085Z,3.97
2018-04-15T14:05:14.364Z,3.73
2018-04-15T14:06:17.699Z,4.17
2018-04-15T14:07:19.365Z,3.97
2018-04-15T14:08:21.662Z,4.53
2018-04-15T14:10:40.298Z,4.33
2018-04-15T14:11:42.670Z,3.80
2018-04-15T14:14:34.583Z,4.33
2018-04-15T14:15:36.275Z,4.37
2018-04-15T14:16:39.629Z,4.90
2018-04-15T14:17:41.289Z,4.30
2018-04-15T14:18:44.669Z,4.40
2018-04-15T14:19:46.445Z,4.23
2018-04-15T14:20:49.788Z,4.20
2018-04-15T14:21:51.509Z,4.20
2018-04-15T14:22:54.919Z,3.97
2018-04-15T14:23:58.378Z,4.27
2018-04-15T14:25:00.111Z,3.70
2018-04-15T14:26:01.874Z,4.10
2018-04-15T14:27:05.234Z,4.37
2018-04-15T14:28:06.923Z,4.40
2018-04-15T14:31:09.570Z,3.83
2018-04-15T14:32:13.060Z,4.00
2018-04-15T14:33:15.023Z,4.60
2018-04-15T14:34:16.965Z,3.87
2018-04-15T14:35:18.725Z,4.43
2018-04-15T14:36:22.540Z,4.10
2018-04-15T14:37:26.021Z,4.17
2018-04-15T14:38:28.035Z,4.57
2018-04-15T14:40:52.655Z,3.80
2018-04-15T14:41:56.035Z,3.83
2018-04-15T14:42:58.975Z,3.77
2018-04-15T14:44:00.667Z,3.87
2018-04-15T14:45:02.446Z,4.70
2018-04-15T14:46:05.806Z,4.20
2018-04-15T14:47:07.460Z,4.10
2018-04-15T14:48:10.923Z,4.30
2018-04-15T14:49:14.227Z,4.60
2018-04-15T14:50:15.911Z,4.70
2018-04-15T14:51:17.573Z,4.90
2018-04-15T14:52:21.955Z,5.07
2018-04-15T14:53:25.316Z,4.67
2018-04-15T14:55:47.423Z,4.83
2018-04-15T14:56:50.801Z,4.57
2018-04-15T14:59:13.995Z,5.00
2018-04-15T15:00:17.357Z,4.83
2018-04-15T15:01:20.655Z,5.07
2018-04-15T15:02:24.380Z,4.87
2018-04-15T15:03:27.674Z,5.07
2018-04-15T15:05:56.069Z,5.30
2018-04-15T15:06:59.451Z,6.30
2018-04-15T15:08:02.821Z,6.23
2018-04-15T15:09:05.572Z,5.93
2018-04-15T15:10:08.935Z,5.60
2018-04-15T15:11:12.281Z,6.43
2018-04-15T15:12:13.981Z,6.30
2018-04-15T15:13:15.618Z,5.50
2018-04-15T15:14:19.097Z,6.13
2018-04-15T15:15:22.446Z,6.20
2018-04-15T15:16:25.801Z,5.87
2018-04-15T15:17:29.247Z,6.63
2018-04-15T15:18:32.589Z,6.50
2018-04-15T15:19:35.956Z,6.97
2018-04-15T15:20:39.238Z,5.97
2018-04-15T15:21:42.067Z,6.43
2018-04-15T15:22:44.972Z,6.10
2018-04-15T15:23:46.825Z,6.07
2018-04-15T15:24:50.239Z,6.20
2018-04-15T15:25:52.023Z,6.43
2018-04-15T15:26:54.065Z,6.27
2018-04-15T15:27:57.368Z,6.50
2018-04-15T15:29:00.749Z,6.10
2018-04-15T15:30:04.125Z,6.20
2018-04-15T15:31:05.839Z,5.37
2018-04-15T15:32:07.585Z,6.10
2018-04-15T15:33:10.960Z,5.83
2018-04-15T15:34:14.261Z,7.00
2018-04-15T15:35:16.005Z,5.83
2018-04-15T15:36:19.381Z,5.70
2018-04-15T15:37:21.191Z,6.37
2018-04-15T15:38:24.563Z,5.73
2018-04-15T15:40:47.788Z,5.73
2018-04-15T15:41:49.518Z,6.03
2018-04-15T15:42:52.949Z,6.30
2018-04-15T15:43:56.069Z,6.37
2018-04-15T15:44:59.369Z,6.20
2018-04-15T15:46:01.167Z,6.27
2018-04-15T15:47:04.547Z,6.80
2018-04-15T15:48:07.857Z,6.87
2018-04-15T15:49:11.162Z,7.27
2018-04-15T15:50:14.545Z,6.80
2018-04-15T15:51:17.882Z,6.70
2018-04-15T15:52:21.269Z,6.40
2018-04-15T15:53:24.881Z,6.40